sensor_id;sensor_type;location;lat;lon;timestamp;temperature;humidity
4922;DHT22;16625;53.624;10.106;2023-08-01T00:01:32;15.90;99.90
4922;DHT22;16625;53.624;10.106;2023-08-01T00:03:59;15.90;99.90
4922;DHT22;16625;53.624;10.106;2023-08-01T00:06:26;16.80;99.90
4922;DHT22;16625;53.624;10.106;2023-08-01T00:08:53;16.00;99.90
4922;DHT22;16625;53.624;10.106;2023-08-01T00:11:20;15.90;99.90
4922;DHT22;16625;53.624;10.106;2023-08-01T00:13:48;15.90;99.90
4922;DHT22;16625;53.624;10.106;2023-08-01T00:16:15;15.90;99.90
4922;DHT22;16625;53.624;10.106;2023-08-01T00:18:42;15.90;99.90
4922;DHT22;16625;53.624;10.106;2023-08-01T00:21:09;15.80;99.90
4922;DHT22;16625;53.624;10.106;2023-08-01T00:23:37;15.80;99.90
4922;DHT22;16625;53.624;10.106;2023-08-01T00:26:03;15.90;99.90
4922;DHT22;16625;53.624;10.106;2023-08-01T00:28:30;15.50;99.90
4922;DHT22;16625;53.624;10.106;2023-08-01T00:31:08;16.00;99.90
4922;DHT22;16625;53.624;10.106;2023-08-01T00:33:35;16.30;99.90
4922;DHT22;16625;53.624;10.106;2023-08-01T00:36:02;15.70;99.90
4922;DHT22;16625;53.624;10.106;2023-08-01T00:38:34;15.40;99.90
4922;DHT22;16625;53.624;10.106;2023-08-01T00:41:01;15.40;99.90
4922;DHT22;16625;53.624;10.106;2023-08-01T00:43:28;15.40;99.90
4922;DHT22;16625;53.624;10.106;2023-08-01T00:45:59;16.10;99.90
4922;DHT22;16625;53.624;10.106;2023-08-01T00:48:28;15.40;99.90
4922;DHT22;16625;53.624;10.106;2023-08-01T00:50:55;15.30;99.90
4922;DHT22;16625;53.624;10.106;2023-08-01T00:53:22;15.20;99.90
4922;DHT22;16625;53.624;10.106;2023-08-01T00:55:51;15.20;99.90
4922;DHT22;16625;53.624;10.106;2023-08-01T00:58:19;15.20;99.90
4922;DHT22;16625;53.624;10.106;2023-08-01T01:00:46;15.20;99.90
4922;DHT22;16625;53.624;10.106;2023-08-01T01:03:13;15.20;99.90
4922;DHT22;16625;53.624;10.106;2023-08-01T01:05:49;15.60;99.90
4922;DHT22;16625;53.624;10.106;2023-08-01T01:08:20;16.20;99.90
4922;DHT22;16625;53.624;10.106;2023-08-01T01:10:47;16.10;99.90
4922;DHT22;16625;53.624;10.106;2023-08-01T01:13:14;15.20;99.90
4922;DHT22;16625;53.624;10.106;2023-08-01T01:15:41;15.20;99.90
4922;DHT22;16625;53.624;10.106;2023-08-01T01:18:08;15.90;99.90
4922;DHT22;16625;53.624;10.106;2023-08-01T01:20:36;15.70;99.90
4922;DHT22;16625;53.624;10.106;2023-08-01T01:23:04;15.90;99.90
4922;DHT22;16625;53.624;10.106;2023-08-01T01:25:32;15.30;99.90
4922;DHT22;16625;53.624;10.106;2023-08-01T01:28:00;15.30;99.90
4922;DHT22;16625;53.624;10.106;2023-08-01T01:30:30;15.30;99.90
4922;DHT22;16625;53.624;10.106;2023-08-01T01:32:59;15.30;99.90
4922;DHT22;16625;53.624;10.106;2023-08-01T01:35:26;15.50;99.90
4922;DHT22;16625;53.624;10.106;2023-08-01T01:37:55;15.80;99.90
4922;DHT22;16625;53.624;10.106;2023-08-01T01:40:24;16.20;99.90
4922;DHT22;16625;53.624;10.106;2023-08-01T01:42:51;15.90;99.90
4922;DHT22;16625;53.624;10.106;2023-08-01T01:45:18;15.30;99.90
4922;DHT22;16625;53.624;10.106;2023-08-01T01:47:45;15.40;99.90
4922;DHT22;16625;53.624;10.106;2023-08-01T01:50:12;15.80;99.90
4922;DHT22;16625;53.624;10.106;2023-08-01T01:52:38;15.20;99.90
4922;DHT22;16625;53.624;10.106;2023-08-01T01:55:07;15.50;99.90
4922;DHT22;16625;53.624;10.106;2023-08-01T01:57:35;15.30;99.90
4922;DHT22;16625;53.624;10.106;2023-08-01T02:00:03;15.30;99.90
4922;DHT22;16625;53.624;10.106;2023-08-01T02:02:29;15.20;99.90
4922;DHT22;16625;53.624;10.106;2023-08-01T02:04:56;15.20;99.90
4922;DHT22;16625;53.624;10.106;2023-08-01T02:07:23;15.40;99.90
4922;DHT22;16625;53.624;10.106;2023-08-01T02:09:50;15.90;99.90
4922;DHT22;16625;53.624;10.106;2023-08-01T02:12:19;15.30;99.90
4922;DHT22;16625;53.624;10.106;2023-08-01T02:14:45;16.00;99.90
4922;DHT22;16625;53.624;10.106;2023-08-01T02:17:13;15.50;99.90
4922;DHT22;16625;53.624;10.106;2023-08-01T02:19:39;15.30;99.90
4922;DHT22;16625;53.624;10.106;2023-08-01T02:22:06;15.50;99.90
4922;DHT22;16625;53.624;10.106;2023-08-01T02:24:33;15.40;99.90
4922;DHT22;16625;53.624;10.106;2023-08-01T02:27:00;15.40;99.90
4922;DHT22;16625;53.624;10.106;2023-08-01T02:29:28;15.80;99.90
4922;DHT22;16625;53.624;10.106;2023-08-01T02:31:55;15.80;99.90
4922;DHT22;16625;53.624;10.106;2023-08-01T02:34:22;15.90;99.90
4922;DHT22;16625;53.624;10.106;2023-08-01T02:36:49;15.70;99.90
4922;DHT22;16625;53.624;10.106;2023-08-01T02:39:17;15.50;99.90
4922;DHT22;16625;53.624;10.106;2023-08-01T02:41:44;15.80;99.90
4922;DHT22;16625;53.624;10.106;2023-08-01T02:44:11;15.70;99.90
4922;DHT22;16625;53.624;10.106;2023-08-01T02:46:39;15.50;99.90
4922;DHT22;16625;53.624;10.106;2023-08-01T02:49:06;16.30;99.90
4922;DHT22;16625;53.624;10.106;2023-08-01T02:51:33;16.00;99.90
4922;DHT22;16625;53.624;10.106;2023-08-01T02:54:00;16.00;99.90
4922;DHT22;16625;53.624;10.106;2023-08-01T02:56:27;15.60;99.90
4922;DHT22;16625;53.624;10.106;2023-08-01T02:58:54;16.40;99.90
4922;DHT22;16625;53.624;10.106;2023-08-01T03:01:24;15.80;99.90
4922;DHT22;16625;53.624;10.106;2023-08-01T03:03:52;16.00;99.90
4922;DHT22;16625;53.624;10.106;2023-08-01T03:06:19;15.70;99.90
4922;DHT22;16625;53.624;10.106;2023-08-01T03:08:46;16.20;99.90
4922;DHT22;16625;53.624;10.106;2023-08-01T03:11:13;15.90;99.90
4922;DHT22;16625;53.624;10.106;2023-08-01T03:13:40;15.80;99.90
4922;DHT22;16625;53.624;10.106;2023-08-01T03:16:07;15.60;99.90
4922;DHT22;16625;53.624;10.106;2023-08-01T03:18:35;15.70;99.90
4922;DHT22;16625;53.624;10.106;2023-08-01T03:21:04;15.90;99.90
4922;DHT22;16625;53.624;10.106;2023-08-01T03:23:31;16.40;99.90
4922;DHT22;16625;53.624;10.106;2023-08-01T03:25:58;15.60;99.90
4922;DHT22;16625;53.624;10.106;2023-08-01T03:28:25;15.60;99.90
4922;DHT22;16625;53.624;10.106;2023-08-01T03:30:53;16.40;99.90
4922;DHT22;16625;53.624;10.106;2023-08-01T03:33:20;15.60;99.90
4922;DHT22;16625;53.624;10.106;2023-08-01T03:35:47;15.80;99.90
4922;DHT22;16625;53.624;10.106;2023-08-01T03:38:15;16.20;99.90
4922;DHT22;16625;53.624;10.106;2023-08-01T03:40:42;16.30;99.90
4922;DHT22;16625;53.624;10.106;2023-08-01T03:43:09;15.90;99.90
4922;DHT22;16625;53.624;10.106;2023-08-01T03:45:36;15.70;99.90
4922;DHT22;16625;53.624;10.106;2023-08-01T03:48:03;16.00;99.90
4922;DHT22;16625;53.624;10.106;2023-08-01T03:50:30;15.60;99.90
4922;DHT22;16625;53.624;10.106;2023-08-01T03:52:57;15.80;99.90
4922;DHT22;16625;53.624;10.106;2023-08-01T03:55:25;15.90;99.90
4922;DHT22;16625;53.624;10.106;2023-08-01T03:57:52;15.60;99.90
4922;DHT22;16625;53.624;10.106;2023-08-01T04:00:19;15.60;99.90
4922;DHT22;16625;53.624;10.106;2023-08-01T04:02:46;15.70;99.90
4922;DHT22;16625;53.624;10.106;2023-08-01T04:05:13;15.70;99.90
4922;DHT22;16625;53.624;10.106;2023-08-01T04:07:40;15.70;99.90
4922;DHT22;16625;53.624;10.106;2023-08-01T04:10:08;15.70;99.90
4922;DHT22;16625;53.624;10.106;2023-08-01T04:12:36;15.70;99.90
4922;DHT22;16625;53.624;10.106;2023-08-01T04:15:04;16.10;99.90
4922;DHT22;16625;53.624;10.106;2023-08-01T04:17:31;15.70;99.90
4922;DHT22;16625;53.624;10.106;2023-08-01T04:19:58;16.60;99.90
4922;DHT22;16625;53.624;10.106;2023-08-01T04:22:25;16.00;99.90
4922;DHT22;16625;53.624;10.106;2023-08-01T04:24:52;15.80;99.90
4922;DHT22;16625;53.624;10.106;2023-08-01T04:27:18;16.40;99.90
4922;DHT22;16625;53.624;10.106;2023-08-01T04:29:48;16.20;99.90
4922;DHT22;16625;53.624;10.106;2023-08-01T04:32:14;16.20;99.90
4922;DHT22;16625;53.624;10.106;2023-08-01T04:34:41;16.00;99.90
4922;DHT22;16625;53.624;10.106;2023-08-01T04:37:08;15.80;99.90
4922;DHT22;16625;53.624;10.106;2023-08-01T04:39:36;15.80;99.90
4922;DHT22;16625;53.624;10.106;2023-08-01T04:42:03;15.90;99.90
4922;DHT22;16625;53.624;10.106;2023-08-01T04:44:30;15.80;99.90
4922;DHT22;16625;53.624;10.106;2023-08-01T04:46:58;15.80;99.90
4922;DHT22;16625;53.624;10.106;2023-08-01T04:49:25;15.90;99.90
4922;DHT22;16625;53.624;10.106;2023-08-01T04:51:52;15.80;99.90
4922;DHT22;16625;53.624;10.106;2023-08-01T04:54:19;15.80;99.90
4922;DHT22;16625;53.624;10.106;2023-08-01T04:56:46;15.80;99.90
4922;DHT22;16625;53.624;10.106;2023-08-01T04:59:13;15.90;99.90
4922;DHT22;16625;53.624;10.106;2023-08-01T05:01:39;15.90;99.90
4922;DHT22;16625;53.624;10.106;2023-08-01T05:04:08;15.90;99.90
4922;DHT22;16625;53.624;10.106;2023-08-01T05:06:34;15.90;99.90
4922;DHT22;16625;53.624;10.106;2023-08-01T05:09:01;16.20;99.90
4922;DHT22;16625;53.624;10.106;2023-08-01T05:11:28;16.00;99.90
4922;DHT22;16625;53.624;10.106;2023-08-01T05:13:55;16.00;99.90
4922;DHT22;16625;53.624;10.106;2023-08-01T05:16:22;16.10;99.90
4922;DHT22;16625;53.624;10.106;2023-08-01T05:18:49;16.70;99.90
4922;DHT22;16625;53.624;10.106;2023-08-01T05:21:17;16.20;99.90
4922;DHT22;16625;53.624;10.106;2023-08-01T05:23:44;16.20;99.90
4922;DHT22;16625;53.624;10.106;2023-08-01T05:26:11;16.20;99.90
4922;DHT22;16625;53.624;10.106;2023-08-01T05:28:38;16.90;99.90
4922;DHT22;16625;53.624;10.106;2023-08-01T05:31:05;16.50;99.90
4922;DHT22;16625;53.624;10.106;2023-08-01T05:33:32;16.20;99.90
4922;DHT22;16625;53.624;10.106;2023-08-01T05:35:58;16.60;99.90
4922;DHT22;16625;53.624;10.106;2023-08-01T05:38:27;16.40;99.90
4922;DHT22;16625;53.624;10.106;2023-08-01T05:40:54;16.90;99.90
4922;DHT22;16625;53.624;10.106;2023-08-01T05:43:20;16.20;99.90
4922;DHT22;16625;53.624;10.106;2023-08-01T05:45:47;16.20;99.90
4922;DHT22;16625;53.624;10.106;2023-08-01T05:48:14;16.30;99.90
4922;DHT22;16625;53.624;10.106;2023-08-01T05:50:41;16.40;99.90
4922;DHT22;16625;53.624;10.106;2023-08-01T05:53:08;16.50;99.90
4922;DHT22;16625;53.624;10.106;2023-08-01T05:55:36;16.60;99.90
4922;DHT22;16625;53.624;10.106;2023-08-01T05:58:03;16.60;99.90
4922;DHT22;16625;53.624;10.106;2023-08-01T06:00:30;16.40;99.90
4922;DHT22;16625;53.624;10.106;2023-08-01T06:02:57;16.70;99.90
4922;DHT22;16625;53.624;10.106;2023-08-01T06:05:26;16.80;99.90
4922;DHT22;16625;53.624;10.106;2023-08-01T06:07:53;17.00;99.90
4922;DHT22;16625;53.624;10.106;2023-08-01T06:10:19;16.60;99.90
4922;DHT22;16625;53.624;10.106;2023-08-01T06:12:48;17.20;99.90
4922;DHT22;16625;53.624;10.106;2023-08-01T06:15:15;16.60;99.90
4922;DHT22;16625;53.624;10.106;2023-08-01T06:17:42;16.60;99.90
4922;DHT22;16625;53.624;10.106;2023-08-01T06:20:10;17.10;99.90
4922;DHT22;16625;53.624;10.106;2023-08-01T06:22:38;16.60;99.90
4922;DHT22;16625;53.624;10.106;2023-08-01T06:25:05;17.20;99.90
4922;DHT22;16625;53.624;10.106;2023-08-01T06:27:32;16.80;99.90
4922;DHT22;16625;53.624;10.106;2023-08-01T06:30:01;16.50;99.90
4922;DHT22;16625;53.624;10.106;2023-08-01T06:32:28;17.10;99.90
4922;DHT22;16625;53.624;10.106;2023-08-01T06:34:55;17.30;99.90
4922;DHT22;16625;53.624;10.106;2023-08-01T06:37:21;17.30;99.90
4922;DHT22;16625;53.624;10.106;2023-08-01T06:39:48;17.40;99.90
4922;DHT22;16625;53.624;10.106;2023-08-01T06:42:15;17.70;99.90
4922;DHT22;16625;53.624;10.106;2023-08-01T06:44:42;17.70;99.90
4922;DHT22;16625;53.624;10.106;2023-08-01T06:47:11;17.40;99.90
4922;DHT22;16625;53.624;10.106;2023-08-01T06:49:38;17.60;99.90
4922;DHT22;16625;53.624;10.106;2023-08-01T06:52:05;17.50;99.90
4922;DHT22;16625;53.624;10.106;2023-08-01T06:54:32;17.40;99.90
4922;DHT22;16625;53.624;10.106;2023-08-01T06:56:59;17.30;99.90
4922;DHT22;16625;53.624;10.106;2023-08-01T06:59:26;17.10;99.90
4922;DHT22;16625;53.624;10.106;2023-08-01T07:01:53;17.70;99.90
4922;DHT22;16625;53.624;10.106;2023-08-01T07:04:21;17.10;99.90
4922;DHT22;16625;53.624;10.106;2023-08-01T07:06:49;17.20;99.90
4922;DHT22;16625;53.624;10.106;2023-08-01T07:09:16;17.60;99.90
4922;DHT22;16625;53.624;10.106;2023-08-01T07:11:43;17.70;99.90
4922;DHT22;16625;53.624;10.106;2023-08-01T07:14:10;17.30;99.90
4922;DHT22;16625;53.624;10.106;2023-08-01T07:16:37;17.30;99.90
4922;DHT22;16625;53.624;10.106;2023-08-01T07:19:03;17.20;99.90
4922;DHT22;16625;53.624;10.106;2023-08-01T07:21:32;17.80;99.90
4922;DHT22;16625;53.624;10.106;2023-08-01T07:23:59;17.70;99.90
4922;DHT22;16625;53.624;10.106;2023-08-01T07:26:26;17.60;99.90
4922;DHT22;16625;53.624;10.106;2023-08-01T07:28:54;17.90;99.90
4922;DHT22;16625;53.624;10.106;2023-08-01T07:31:21;18.00;99.90
4922;DHT22;16625;53.624;10.106;2023-08-01T07:33:48;18.30;99.90
4922;DHT22;16625;53.624;10.106;2023-08-01T07:36:14;18.20;99.90
4922;DHT22;16625;53.624;10.106;2023-08-01T07:38:43;18.30;99.90
4922;DHT22;16625;53.624;10.106;2023-08-01T07:41:10;18.10;99.90
4922;DHT22;16625;53.624;10.106;2023-08-01T07:43:37;18.50;99.90
4922;DHT22;16625;53.624;10.106;2023-08-01T07:46:04;18.10;99.90
4922;DHT22;16625;53.624;10.106;2023-08-01T07:48:31;18.50;99.90
4922;DHT22;16625;53.624;10.106;2023-08-01T07:50:58;18.00;99.90
4922;DHT22;16625;53.624;10.106;2023-08-01T07:53:24;18.20;99.90
4922;DHT22;16625;53.624;10.106;2023-08-01T07:55:53;18.20;99.90
4922;DHT22;16625;53.624;10.106;2023-08-01T07:58:20;18.60;99.90
4922;DHT22;16625;53.624;10.106;2023-08-01T08:00:47;18.80;99.90
4922;DHT22;16625;53.624;10.106;2023-08-01T08:03:14;18.20;99.90
4922;DHT22;16625;53.624;10.106;2023-08-01T08:05:41;18.30;99.80
4922;DHT22;16625;53.624;10.106;2023-08-01T08:08:08;18.20;99.90
4922;DHT22;16625;53.624;10.106;2023-08-01T08:10:35;18.10;1.00
4922;DHT22;16625;53.624;10.106;2023-08-01T08:13:03;18.20;48.20
4922;DHT22;16625;53.624;10.106;2023-08-01T08:15:30;18.20;1.00
4922;DHT22;16625;53.624;10.106;2023-08-01T08:18:00;18.50;29.20
4922;DHT22;16625;53.624;10.106;2023-08-01T08:20:29;18.90;1.00
4922;DHT22;16625;53.624;10.106;2023-08-01T08:22:56;19.00;1.00
4922;DHT22;16625;53.624;10.106;2023-08-01T08:25:23;18.90;1.00
4922;DHT22;16625;53.624;10.106;2023-08-01T08:27:50;19.30;99.90
4922;DHT22;16625;53.624;10.106;2023-08-01T08:30:18;20.20;1.00
4922;DHT22;16625;53.624;10.106;2023-08-01T08:32:45;19.70;1.00
4922;DHT22;16625;53.624;10.106;2023-08-01T08:35:12;20.00;74.70
4922;DHT22;16625;53.624;10.106;2023-08-01T08:37:39;20.10;1.00
4922;DHT22;16625;53.624;10.106;2023-08-01T08:40:07;19.70;1.00
4922;DHT22;16625;53.624;10.106;2023-08-01T08:42:34;19.70;36.00
4922;DHT22;16625;53.624;10.106;2023-08-01T08:45:02;19.60;1.00
4922;DHT22;16625;53.624;10.106;2023-08-01T08:47:36;19.30;1.00
4922;DHT22;16625;53.624;10.106;2023-08-01T08:50:05;19.30;96.00
4922;DHT22;16625;53.624;10.106;2023-08-01T08:52:32;19.40;1.00
4922;DHT22;16625;53.624;10.106;2023-08-01T08:54:59;19.30;1.00
4922;DHT22;16625;53.624;10.106;2023-08-01T08:57:28;19.50;99.90
4922;DHT22;16625;53.624;10.106;2023-08-01T08:59:56;19.90;99.90
4922;DHT22;16625;53.624;10.106;2023-08-01T09:02:23;20.20;99.90
4922;DHT22;16625;53.624;10.106;2023-08-01T09:04:52;20.70;99.90
4922;DHT22;16625;53.624;10.106;2023-08-01T09:07:24;21.10;99.90
4922;DHT22;16625;53.624;10.106;2023-08-01T09:09:51;21.10;99.90
4922;DHT22;16625;53.624;10.106;2023-08-01T09:12:19;21.10;1.00
4922;DHT22;16625;53.624;10.106;2023-08-01T09:14:47;21.00;99.90
4922;DHT22;16625;53.624;10.106;2023-08-01T09:17:17;20.70;99.90
4922;DHT22;16625;53.624;10.106;2023-08-01T09:19:44;20.10;99.90
4922;DHT22;16625;53.624;10.106;2023-08-01T09:22:14;20.00;99.90
4922;DHT22;16625;53.624;10.106;2023-08-01T09:24:50;19.80;99.90
4922;DHT22;16625;53.624;10.106;2023-08-01T09:27:17;19.30;99.90
4922;DHT22;16625;53.624;10.106;2023-08-01T09:29:44;18.90;68.10
4922;DHT22;16625;53.624;10.106;2023-08-01T09:32:12;18.80;99.90
4922;DHT22;16625;53.624;10.106;2023-08-01T09:34:40;18.70;99.90
4922;DHT22;16625;53.624;10.106;2023-08-01T09:37:08;18.50;99.90
4922;DHT22;16625;53.624;10.106;2023-08-01T09:39:36;18.60;1.00
4922;DHT22;16625;53.624;10.106;2023-08-01T09:42:03;18.50;1.00
4922;DHT22;16625;53.624;10.106;2023-08-01T09:44:30;18.50;1.00
4922;DHT22;16625;53.624;10.106;2023-08-01T09:46:58;18.40;99.90
4922;DHT22;16625;53.624;10.106;2023-08-01T09:49:27;18.70;1.00
4922;DHT22;16625;53.624;10.106;2023-08-01T09:51:54;19.20;1.00
4922;DHT22;16625;53.624;10.106;2023-08-01T09:54:21;19.80;99.90
4922;DHT22;16625;53.624;10.106;2023-08-01T09:56:51;20.10;99.90
4922;DHT22;16625;53.624;10.106;2023-08-01T09:59:20;20.30;99.90
4922;DHT22;16625;53.624;10.106;2023-08-01T10:01:49;20.70;99.90
4922;DHT22;16625;53.624;10.106;2023-08-01T10:04:18;20.60;99.90
4922;DHT22;16625;53.624;10.106;2023-08-01T10:06:54;20.80;99.90
4922;DHT22;16625;53.624;10.106;2023-08-01T10:09:23;21.00;1.00
4922;DHT22;16625;53.624;10.106;2023-08-01T10:11:52;21.10;99.90
4922;DHT22;16625;53.624;10.106;2023-08-01T10:14:20;21.00;1.00
4922;DHT22;16625;53.624;10.106;2023-08-01T10:16:47;20.60;1.00
4922;DHT22;16625;53.624;10.106;2023-08-01T10:19:14;20.90;1.00
4922;DHT22;16625;53.624;10.106;2023-08-01T10:21:42;21.20;99.90
4922;DHT22;16625;53.624;10.106;2023-08-01T10:24:10;21.50;99.90
4922;DHT22;16625;53.624;10.106;2023-08-01T10:26:38;21.50;1.00
4922;DHT22;16625;53.624;10.106;2023-08-01T10:29:06;21.50;99.90
4922;DHT22;16625;53.624;10.106;2023-08-01T10:31:33;21.60;99.90
4922;DHT22;16625;53.624;10.106;2023-08-01T10:34:04;21.30;99.90
4922;DHT22;16625;53.624;10.106;2023-08-01T10:36:32;20.80;1.00
4922;DHT22;16625;53.624;10.106;2023-08-01T10:39:01;20.40;56.30
4922;DHT22;16625;53.624;10.106;2023-08-01T10:41:29;20.10;99.90
4922;DHT22;16625;53.624;10.106;2023-08-01T10:44:08;20.00;1.00
4922;DHT22;16625;53.624;10.106;2023-08-01T10:46:53;19.90;1.00
4922;DHT22;16625;53.624;10.106;2023-08-01T10:49:32;19.80;1.00
4922;DHT22;16625;53.624;10.106;2023-08-01T10:51:59;19.50;99.90
4922;DHT22;16625;53.624;10.106;2023-08-01T10:54:26;19.20;1.00
4922;DHT22;16625;53.624;10.106;2023-08-01T10:56:55;19.00;1.00
4922;DHT22;16625;53.624;10.106;2023-08-01T10:59:25;19.00;99.90
4922;DHT22;16625;53.624;10.106;2023-08-01T11:01:53;18.90;1.00
4922;DHT22;16625;53.624;10.106;2023-08-01T11:04:22;19.00;99.90
4922;DHT22;16625;53.624;10.106;2023-08-01T11:06:49;19.30;1.00
4922;DHT22;16625;53.624;10.106;2023-08-01T11:09:18;19.30;1.00
4922;DHT22;16625;53.624;10.106;2023-08-01T11:11:46;18.90;1.00
4922;DHT22;16625;53.624;10.106;2023-08-01T11:14:15;18.80;1.00
4922;DHT22;16625;53.624;10.106;2023-08-01T11:16:43;18.60;1.00
4922;DHT22;16625;53.624;10.106;2023-08-01T11:19:20;18.20;1.00
4922;DHT22;16625;53.624;10.106;2023-08-01T11:21:48;18.10;99.90
4922;DHT22;16625;53.624;10.106;2023-08-01T11:24:16;17.60;36.20
4922;DHT22;16625;53.624;10.106;2023-08-01T11:26:43;17.40;1.00
4922;DHT22;16625;53.624;10.106;2023-08-01T11:29:11;17.00;99.90
4922;DHT22;16625;53.624;10.106;2023-08-01T11:31:38;16.60;99.90
4922;DHT22;16625;53.624;10.106;2023-08-01T11:34:07;16.40;86.20
4922;DHT22;16625;53.624;10.106;2023-08-01T11:36:36;16.30;99.90
4922;DHT22;16625;53.624;10.106;2023-08-01T11:39:04;16.30;99.90
4922;DHT22;16625;53.624;10.106;2023-08-01T11:41:31;16.20;99.90
4922;DHT22;16625;53.624;10.106;2023-08-01T11:44:02;15.90;99.90
4922;DHT22;16625;53.624;10.106;2023-08-01T11:46:34;15.80;99.90
4922;DHT22;16625;53.624;10.106;2023-08-01T11:49:01;16.00;99.90
4922;DHT22;16625;53.624;10.106;2023-08-01T11:51:30;16.50;99.90
4922;DHT22;16625;53.624;10.106;2023-08-01T11:54:00;16.20;99.90
4922;DHT22;16625;53.624;10.106;2023-08-01T11:56:28;16.30;99.90
4922;DHT22;16625;53.624;10.106;2023-08-01T11:58:54;16.50;99.90
4922;DHT22;16625;53.624;10.106;2023-08-01T12:01:21;16.80;99.90
4922;DHT22;16625;53.624;10.106;2023-08-01T12:03:50;17.10;99.90
4922;DHT22;16625;53.624;10.106;2023-08-01T12:06:20;17.10;99.90
4922;DHT22;16625;53.624;10.106;2023-08-01T12:08:50;17.50;99.90
4922;DHT22;16625;53.624;10.106;2023-08-01T12:11:18;17.70;99.90
4922;DHT22;16625;53.624;10.106;2023-08-01T12:13:46;18.20;99.90
4922;DHT22;16625;53.624;10.106;2023-08-01T12:16:13;18.60;78.80
4922;DHT22;16625;53.624;10.106;2023-08-01T12:18:45;19.20;1.00
4922;DHT22;16625;53.624;10.106;2023-08-01T12:21:13;19.70;99.90
4922;DHT22;16625;53.624;10.106;2023-08-01T12:23:40;19.60;68.90
4922;DHT22;16625;53.624;10.106;2023-08-01T12:26:09;19.60;99.90
4922;DHT22;16625;53.624;10.106;2023-08-01T12:28:36;19.70;40.30
4922;DHT22;16625;53.624;10.106;2023-08-01T12:31:03;19.80;99.90
4922;DHT22;16625;53.624;10.106;2023-08-01T12:33:30;19.70;1.00
4922;DHT22;16625;53.624;10.106;2023-08-01T12:35:57;19.40;1.00
4922;DHT22;16625;53.624;10.106;2023-08-01T12:38:25;19.40;1.00
4922;DHT22;16625;53.624;10.106;2023-08-01T12:40:52;19.50;99.90
4922;DHT22;16625;53.624;10.106;2023-08-01T12:43:20;19.20;99.90
4922;DHT22;16625;53.624;10.106;2023-08-01T12:45:48;18.90;99.90
4922;DHT22;16625;53.624;10.106;2023-08-01T12:48:14;18.90;99.90
4922;DHT22;16625;53.624;10.106;2023-08-01T12:50:44;18.60;1.00
4922;DHT22;16625;53.624;10.106;2023-08-01T12:53:11;18.30;99.90
4922;DHT22;16625;53.624;10.106;2023-08-01T12:55:38;18.30;99.90
4922;DHT22;16625;53.624;10.106;2023-08-01T12:58:06;18.10;99.90
4922;DHT22;16625;53.624;10.106;2023-08-01T13:00:35;18.00;99.90
4922;DHT22;16625;53.624;10.106;2023-08-01T13:03:02;18.00;99.90
4922;DHT22;16625;53.624;10.106;2023-08-01T13:05:29;17.80;1.00
4922;DHT22;16625;53.624;10.106;2023-08-01T13:07:56;17.70;1.00
4922;DHT22;16625;53.624;10.106;2023-08-01T13:10:23;17.70;1.00
4922;DHT22;16625;53.624;10.106;2023-08-01T13:12:50;17.40;1.00
4922;DHT22;16625;53.624;10.106;2023-08-01T13:15:17;17.40;99.90
4922;DHT22;16625;53.624;10.106;2023-08-01T13:17:45;17.30;99.90
4922;DHT22;16625;53.624;10.106;2023-08-01T13:20:12;17.30;99.90
4922;DHT22;16625;53.624;10.106;2023-08-01T13:22:39;17.40;99.90
4922;DHT22;16625;53.624;10.106;2023-08-01T13:25:07;18.00;99.90
4922;DHT22;16625;53.624;10.106;2023-08-01T13:27:34;17.80;99.90
4922;DHT22;16625;53.624;10.106;2023-08-01T13:30:02;17.80;99.90
4922;DHT22;16625;53.624;10.106;2023-08-01T13:32:28;18.10;99.90
4922;DHT22;16625;53.624;10.106;2023-08-01T13:34:57;18.30;99.90
4922;DHT22;16625;53.624;10.106;2023-08-01T13:37:24;18.30;85.70
4922;DHT22;16625;53.624;10.106;2023-08-01T13:39:51;18.50;1.00
4922;DHT22;16625;53.624;10.106;2023-08-01T13:42:18;18.50;99.90
4922;DHT22;16625;53.624;10.106;2023-08-01T13:44:45;18.60;99.90
4922;DHT22;16625;53.624;10.106;2023-08-01T13:47:11;18.70;1.00
4922;DHT22;16625;53.624;10.106;2023-08-01T13:49:38;18.90;99.90
4922;DHT22;16625;53.624;10.106;2023-08-01T13:52:07;18.70;99.90
4922;DHT22;16625;53.624;10.106;2023-08-01T13:54:34;18.90;99.90
4922;DHT22;16625;53.624;10.106;2023-08-01T13:57:01;18.90;1.00
4922;DHT22;16625;53.624;10.106;2023-08-01T13:59:28;19.10;99.90
4922;DHT22;16625;53.624;10.106;2023-08-01T14:01:55;19.30;1.00
4922;DHT22;16625;53.624;10.106;2023-08-01T14:04:22;19.30;99.90
4922;DHT22;16625;53.624;10.106;2023-08-01T14:06:49;19.10;1.00
4922;DHT22;16625;53.624;10.106;2023-08-01T14:09:17;18.90;99.90
4922;DHT22;16625;53.624;10.106;2023-08-01T14:11:44;18.90;1.00
4922;DHT22;16625;53.624;10.106;2023-08-01T14:14:11;18.70;23.40
4922;DHT22;16625;53.624;10.106;2023-08-01T14:16:38;18.50;99.90
4922;DHT22;16625;53.624;10.106;2023-08-01T14:19:04;18.30;1.00
4922;DHT22;16625;53.624;10.106;2023-08-01T14:21:33;18.60;1.00
4922;DHT22;16625;53.624;10.106;2023-08-01T14:24:00;18.60;45.10
4922;DHT22;16625;53.624;10.106;2023-08-01T14:26:29;18.00;99.90
4922;DHT22;16625;53.624;10.106;2023-08-01T14:28:56;17.90;99.90
4922;DHT22;16625;53.624;10.106;2023-08-01T14:31:23;18.30;99.90
4922;DHT22;16625;53.624;10.106;2023-08-01T14:33:49;17.50;99.90
4922;DHT22;16625;53.624;10.106;2023-08-01T14:36:16;17.40;99.90
4922;DHT22;16625;53.624;10.106;2023-08-01T14:38:43;17.70;99.90
4922;DHT22;16625;53.624;10.106;2023-08-01T14:41:13;18.00;99.90
4922;DHT22;16625;53.624;10.106;2023-08-01T14:43:41;18.30;22.30
4922;DHT22;16625;53.624;10.106;2023-08-01T14:46:10;18.70;1.00
4922;DHT22;16625;53.624;10.106;2023-08-01T14:48:37;18.70;99.90
4922;DHT22;16625;53.624;10.106;2023-08-01T14:51:05;19.00;1.00
4922;DHT22;16625;53.624;10.106;2023-08-01T14:53:32;19.00;1.00
4922;DHT22;16625;53.624;10.106;2023-08-01T14:55:59;19.10;1.00
4922;DHT22;16625;53.624;10.106;2023-08-01T14:58:28;19.10;99.90
4922;DHT22;16625;53.624;10.106;2023-08-01T15:00:56;19.10;99.90
4922;DHT22;16625;53.624;10.106;2023-08-01T15:03:23;18.70;1.00
4922;DHT22;16625;53.624;10.106;2023-08-01T15:05:50;18.70;1.00
4922;DHT22;16625;53.624;10.106;2023-08-01T15:08:17;18.60;1.00
4922;DHT22;16625;53.624;10.106;2023-08-01T15:10:45;18.70;1.00
4922;DHT22;16625;53.624;10.106;2023-08-01T15:13:12;19.10;99.90
4922;DHT22;16625;53.624;10.106;2023-08-01T15:15:39;19.30;99.90
4922;DHT22;16625;53.624;10.106;2023-08-01T15:18:07;19.50;1.00
4922;DHT22;16625;53.624;10.106;2023-08-01T15:20:34;19.70;99.90
4922;DHT22;16625;53.624;10.106;2023-08-01T15:23:05;19.60;1.00
4922;DHT22;16625;53.624;10.106;2023-08-01T15:25:34;19.70;99.90
4922;DHT22;16625;53.624;10.106;2023-08-01T15:28:01;19.90;99.90
4922;DHT22;16625;53.624;10.106;2023-08-01T15:30:28;20.20;1.00
4922;DHT22;16625;53.624;10.106;2023-08-01T15:32:55;20.20;1.00
4922;DHT22;16625;53.624;10.106;2023-08-01T15:35:28;19.90;1.00